sensor_id;sensor_type;location;lat;lon;timestamp;P1;durP1;ratioP1;P2;durP2;ratioP2
70796;SDS011;63842;52.144;5.360;2023-04-02T00:01:52;14.88;;;6.80;;
70796;SDS011;63842;52.144;5.360;2023-04-02T00:04:23;15.40;;;7.35;;
70796;SDS011;63842;52.144;5.360;2023-04-02T00:06:52;13.95;;;6.80;;
70796;SDS011;63842;52.144;5.360;2023-04-02T00:09:35;14.25;;;6.82;;
70796;SDS011;63842;52.144;5.360;2023-04-02T00:12:13;14.73;;;6.55;;
70796;SDS011;63842;52.144;5.360;2023-04-02T00:14:44;15.65;;;7.47;;
70796;SDS011;63842;52.144;5.360;2023-04-02T00:17:12;17.17;;;7.15;;
70796;SDS011;63842;52.144;5.360;2023-04-02T00:19:44;16.83;;;6.57;;
70796;SDS011;63842;52.144;5.360;2023-04-02T00:22:15;15.43;;;6.57;;
70796;SDS011;63842;52.144;5.360;2023-04-02T00:24:42;15.00;;;6.78;;
70796;SDS011;63842;52.144;5.360;2023-04-02T00:27:10;14.82;;;7.07;;
70796;SDS011;63842;52.144;5.360;2023-04-02T00:29:52;14.48;;;6.88;;
70796;SDS011;63842;52.144;5.360;2023-04-02T00:32:32;15.80;;;7.05;;
70796;SDS011;63842;52.144;5.360;2023-04-02T00:35:00;13.50;;;6.78;;
70796;SDS011;63842;52.144;5.360;2023-04-02T00:37:27;12.95;;;6.70;;
70796;SDS011;63842;52.144;5.360;2023-04-02T00:40:06;18.17;;;7.43;;
70796;SDS011;63842;52.144;5.360;2023-04-02T00:42:36;15.75;;;6.60;;
70796;SDS011;63842;52.144;5.360;2023-04-02T00:45:08;15.20;;;7.00;;
70796;SDS011;63842;52.144;5.360;2023-04-02T00:47:40;15.80;;;6.90;;
70796;SDS011;63842;52.144;5.360;2023-04-02T00:52:42;14.13;;;6.47;;
70796;SDS011;63842;52.144;5.360;2023-04-02T00:57:43;15.15;;;7.20;;
70796;SDS011;63842;52.144;5.360;2023-04-02T01:00:28;15.00;;;6.78;;
70796;SDS011;63842;52.144;5.360;2023-04-02T01:05:43;16.40;;;6.40;;
70796;SDS011;63842;52.144;5.360;2023-04-02T01:10:53;15.32;;;6.47;;
70796;SDS011;63842;52.144;5.360;2023-04-02T01:13:29;14.10;;;6.10;;
70796;SDS011;63842;52.144;5.360;2023-04-02T01:16:02;14.13;;;7.00;;
70796;SDS011;63842;52.144;5.360;2023-04-02T01:18:43;13.55;;;6.40;;
70796;SDS011;63842;52.144;5.360;2023-04-02T01:23:52;17.67;;;6.60;;
70796;SDS011;63842;52.144;5.360;2023-04-02T01:29:15;14.05;;;6.75;;
70796;SDS011;63842;52.144;5.360;2023-04-02T01:31:43;15.05;;;7.03;;
70796;SDS011;63842;52.144;5.360;2023-04-02T01:34:13;13.18;;;6.38;;
70796;SDS011;63842;52.144;5.360;2023-04-02T01:44:52;14.05;;;5.95;;
70796;SDS011;63842;52.144;5.360;2023-04-02T01:47:23;14.02;;;6.20;;
70796;SDS011;63842;52.144;5.360;2023-04-02T01:49:54;12.43;;;6.20;;
70796;SDS011;63842;52.144;5.360;2023-04-02T01:52:33;12.90;;;5.70;;
70796;SDS011;63842;52.144;5.360;2023-04-02T01:55:02;13.25;;;5.68;;
70796;SDS011;63842;52.144;5.360;2023-04-02T01:57:29;14.15;;;5.97;;
70796;SDS011;63842;52.144;5.360;2023-04-02T01:59:58;15.15;;;5.70;;
70796;SDS011;63842;52.144;5.360;2023-04-02T02:02:26;13.43;;;5.88;;
70796;SDS011;63842;52.144;5.360;2023-04-02T02:04:54;15.25;;;6.53;;
70796;SDS011;63842;52.144;5.360;2023-04-02T02:07:21;14.70;;;6.65;;
70796;SDS011;63842;52.144;5.360;2023-04-02T02:09:52;15.30;;;6.60;;
70796;SDS011;63842;52.144;5.360;2023-04-02T02:12:20;12.60;;;5.95;;
70796;SDS011;63842;52.144;5.360;2023-04-02T02:14:48;14.55;;;6.80;;
70796;SDS011;63842;52.144;5.360;2023-04-02T02:17:28;15.80;;;5.93;;
70796;SDS011;63842;52.144;5.360;2023-04-02T02:20:00;15.43;;;6.10;;
70796;SDS011;63842;52.144;5.360;2023-04-02T02:22:31;12.60;;;5.82;;
70796;SDS011;63842;52.144;5.360;2023-04-02T02:25:00;15.43;;;5.75;;
70796;SDS011;63842;52.144;5.360;2023-04-02T02:35:24;13.50;;;5.65;;
70796;SDS011;63842;52.144;5.360;2023-04-02T02:37:56;14.00;;;5.55;;
70796;SDS011;63842;52.144;5.360;2023-04-02T02:40:28;13.82;;;5.93;;
70796;SDS011;63842;52.144;5.360;2023-04-02T02:42:59;13.15;;;6.00;;
70796;SDS011;63842;52.144;5.360;2023-04-02T02:45:28;13.38;;;5.93;;
70796;SDS011;63842;52.144;5.360;2023-04-02T02:47:59;11.38;;;5.57;;
70796;SDS011;63842;52.144;5.360;2023-04-02T02:50:28;14.32;;;6.00;;
70796;SDS011;63842;52.144;5.360;2023-04-02T02:53:02;12.45;;;5.28;;
70796;SDS011;63842;52.144;5.360;2023-04-02T02:55:34;15.25;;;5.38;;
70796;SDS011;63842;52.144;5.360;2023-04-02T02:58:19;13.70;;;5.38;;
70796;SDS011;63842;52.144;5.360;2023-04-02T03:01:11;12.35;;;5.07;;
70796;SDS011;63842;52.144;5.360;2023-04-02T03:03:41;12.65;;;5.43;;
70796;SDS011;63842;52.144;5.360;2023-04-02T03:06:13;14.40;;;5.43;;
70796;SDS011;63842;52.144;5.360;2023-04-02T03:08:50;12.48;;;5.53;;
70796;SDS011;63842;52.144;5.360;2023-04-02T03:14:25;12.30;;;5.28;;
70796;SDS011;63842;52.144;5.360;2023-04-02T03:17:07;11.30;;;5.53;;
70796;SDS011;63842;52.144;5.360;2023-04-02T03:19:39;12.18;;;5.53;;
70796;SDS011;63842;52.144;5.360;2023-04-02T03:22:14;12.00;;;5.38;;
70796;SDS011;63842;52.144;5.360;2023-04-02T03:24:54;13.20;;;5.07;;
70796;SDS011;63842;52.144;5.360;2023-04-02T03:27:25;10.43;;;4.90;;
70796;SDS011;63842;52.144;5.360;2023-04-02T03:32:41;13.10;;;5.43;;
70796;SDS011;63842;52.144;5.360;2023-04-02T03:35:21;11.93;;;5.07;;
70796;SDS011;63842;52.144;5.360;2023-04-02T03:43:20;11.10;;;4.43;;
70796;SDS011;63842;52.144;5.360;2023-04-02T03:45:57;11.98;;;5.47;;
70796;SDS011;63842;52.144;5.360;2023-04-02T03:48:27;13.18;;;5.20;;
70796;SDS011;63842;52.144;5.360;2023-04-02T03:51:04;10.52;;;4.90;;
70796;SDS011;63842;52.144;5.360;2023-04-02T03:53:32;11.57;;;4.80;;
70796;SDS011;63842;52.144;5.360;2023-04-02T03:55:59;12.50;;;5.47;;
70796;SDS011;63842;52.144;5.360;2023-04-02T03:58:33;14.50;;;5.38;;
70796;SDS011;63842;52.144;5.360;2023-04-02T04:06:07;11.15;;;5.28;;
70796;SDS011;63842;52.144;5.360;2023-04-02T04:11:24;11.48;;;5.18;;
70796;SDS011;63842;52.144;5.360;2023-04-02T04:13:58;11.90;;;5.35;;
70796;SDS011;63842;52.144;5.360;2023-04-02T04:16:28;11.65;;;4.95;;
70796;SDS011;63842;52.144;5.360;2023-04-02T04:19:13;11.30;;;5.20;;
70796;SDS011;63842;52.144;5.360;2023-04-02T04:21:44;11.25;;;4.90;;
70796;SDS011;63842;52.144;5.360;2023-04-02T04:24:19;11.13;;;4.97;;
70796;SDS011;63842;52.144;5.360;2023-04-02T04:27:05;11.98;;;5.50;;
70796;SDS011;63842;52.144;5.360;2023-04-02T04:29:46;10.20;;;4.93;;
70796;SDS011;63842;52.144;5.360;2023-04-02T04:34:46;13.18;;;5.07;;
70796;SDS011;63842;52.144;5.360;2023-04-02T04:37:27;10.68;;;5.00;;
70796;SDS011;63842;52.144;5.360;2023-04-02T04:42:33;11.85;;;5.18;;
70796;SDS011;63842;52.144;5.360;2023-04-02T04:47:56;11.05;;;4.13;;
70796;SDS011;63842;52.144;5.360;2023-04-02T04:53:20;10.10;;;4.60;;
70796;SDS011;63842;52.144;5.360;2023-04-02T04:55:58;11.50;;;4.72;;
70796;SDS011;63842;52.144;5.360;2023-04-02T04:58:48;9.60;;;4.30;;
70796;SDS011;63842;52.144;5.360;2023-04-02T05:01:29;11.45;;;4.30;;
70796;SDS011;63842;52.144;5.360;2023-04-02T05:04:03;11.15;;;4.18;;
70796;SDS011;63842;52.144;5.360;2023-04-02T05:06:51;12.02;;;4.70;;
70796;SDS011;63842;52.144;5.360;2023-04-02T05:17:04;8.13;;;3.50;;
70796;SDS011;63842;52.144;5.360;2023-04-02T05:19:36;11.40;;;3.40;;
70796;SDS011;63842;52.144;5.360;2023-04-02T05:27:28;7.30;;;2.70;;
70796;SDS011;63842;52.144;5.360;2023-04-02T05:30:07;10.15;;;3.05;;
70796;SDS011;63842;52.144;5.360;2023-04-02T05:32:39;11.18;;;2.85;;
70796;SDS011;63842;52.144;5.360;2023-04-02T05:35:18;6.72;;;2.40;;
70796;SDS011;63842;52.144;5.360;2023-04-02T05:37:46;9.50;;;2.60;;
70796;SDS011;63842;52.144;5.360;2023-04-02T05:40:20;9.65;;;2.63;;
70796;SDS011;63842;52.144;5.360;2023-04-02T05:42:49;7.18;;;2.13;;
70796;SDS011;63842;52.144;5.360;2023-04-02T05:47:56;8.52;;;2.53;;
70796;SDS011;63842;52.144;5.360;2023-04-02T05:50:34;7.00;;;2.22;;
70796;SDS011;63842;52.144;5.360;2023-04-02T05:53:18;8.75;;;2.28;;
70796;SDS011;63842;52.144;5.360;2023-04-02T05:58:28;6.70;;;2.03;;
70796;SDS011;63842;52.144;5.360;2023-04-02T06:09:20;7.18;;;2.38;;
70796;SDS011;63842;52.144;5.360;2023-04-02T06:11:52;7.18;;;2.15;;
70796;SDS011;63842;52.144;5.360;2023-04-02T06:14:21;7.50;;;2.35;;
70796;SDS011;63842;52.144;5.360;2023-04-02T06:16:48;6.10;;;2.40;;
70796;SDS011;63842;52.144;5.360;2023-04-02T06:19:21;6.53;;;2.33;;
70796;SDS011;63842;52.144;5.360;2023-04-02T06:21:50;6.70;;;2.63;;
70796;SDS011;63842;52.144;5.360;2023-04-02T06:24:21;7.55;;;2.50;;
70796;SDS011;63842;52.144;5.360;2023-04-02T06:26:52;6.53;;;2.58;;
70796;SDS011;63842;52.144;5.360;2023-04-02T06:29:29;8.20;;;2.53;;
70796;SDS011;63842;52.144;5.360;2023-04-02T06:32:00;8.93;;;2.60;;
70796;SDS011;63842;52.144;5.360;2023-04-02T06:34:29;6.55;;;2.60;;
70796;SDS011;63842;52.144;5.360;2023-04-02T06:37:13;8.88;;;2.67;;
70796;SDS011;63842;52.144;5.360;2023-04-02T06:39:43;9.18;;;2.80;;
70796;SDS011;63842;52.144;5.360;2023-04-02T06:42:21;8.20;;;2.67;;
70796;SDS011;63842;52.144;5.360;2023-04-02T06:45:15;9.40;;;2.88;;
70796;SDS011;63842;52.144;5.360;2023-04-02T06:48:01;9.95;;;2.88;;
70796;SDS011;63842;52.144;5.360;2023-04-02T06:50:44;7.80;;;2.90;;
70796;SDS011;63842;52.144;5.360;2023-04-02T06:53:26;8.10;;;3.17;;
70796;SDS011;63842;52.144;5.360;2023-04-02T06:56:04;8.10;;;3.00;;
70796;SDS011;63842;52.144;5.360;2023-04-02T06:58:33;7.90;;;3.38;;
70796;SDS011;63842;52.144;5.360;2023-04-02T07:01:00;10.32;;;3.60;;
70796;SDS011;63842;52.144;5.360;2023-04-02T07:03:40;9.77;;;3.53;;
70796;SDS011;63842;52.144;5.360;2023-04-02T07:06:17;11.15;;;3.72;;
70796;SDS011;63842;52.144;5.360;2023-04-02T07:08:46;9.65;;;3.63;;
70796;SDS011;63842;52.144;5.360;2023-04-02T07:11:16;8.95;;;3.70;;
70796;SDS011;63842;52.144;5.360;2023-04-02T07:13:48;8.35;;;3.90;;
70796;SDS011;63842;52.144;5.360;2023-04-02T07:16:17;8.20;;;3.45;;
70796;SDS011;63842;52.144;5.360;2023-04-02T07:18:45;8.52;;;3.97;;
70796;SDS011;63842;52.144;5.360;2023-04-02T07:21:13;11.15;;;4.05;;
70796;SDS011;63842;52.144;5.360;2023-04-02T07:23:40;11.48;;;4.00;;
70796;SDS011;63842;52.144;5.360;2023-04-02T07:26:10;10.25;;;4.07;;
70796;SDS011;63842;52.144;5.360;2023-04-02T07:28:39;8.40;;;3.97;;
70796;SDS011;63842;52.144;5.360;2023-04-02T07:31:16;8.50;;;3.92;;
70796;SDS011;63842;52.144;5.360;2023-04-02T07:33:44;9.75;;;3.70;;
70796;SDS011;63842;52.144;5.360;2023-04-02T07:36:12;9.73;;;4.28;;
70796;SDS011;63842;52.144;5.360;2023-04-02T07:38:40;10.00;;;3.90;;
70796;SDS011;63842;52.144;5.360;2023-04-02T07:41:08;9.48;;;4.10;;
70796;SDS011;63842;52.144;5.360;2023-04-02T07:43:35;8.00;;;3.78;;
70796;SDS011;63842;52.144;5.360;2023-04-02T07:46:03;10.00;;;4.00;;
70796;SDS011;63842;52.144;5.360;2023-04-02T07:48:30;9.15;;;3.53;;
70796;SDS011;63842;52.144;5.360;2023-04-02T07:50:58;8.20;;;3.60;;
70796;SDS011;63842;52.144;5.360;2023-04-02T07:53:32;7.05;;;3.55;;
70796;SDS011;63842;52.144;5.360;2023-04-02T07:56:01;9.55;;;4.03;;
70796;SDS011;63842;52.144;5.360;2023-04-02T07:58:29;7.32;;;3.60;;
70796;SDS011;63842;52.144;5.360;2023-04-02T08:00:57;9.38;;;3.67;;
70796;SDS011;63842;52.144;5.360;2023-04-02T08:03:24;8.15;;;3.67;;
70796;SDS011;63842;52.144;5.360;2023-04-02T08:05:56;7.32;;;3.50;;
70796;SDS011;63842;52.144;5.360;2023-04-02T08:08:23;8.88;;;3.42;;
70796;SDS011;63842;52.144;5.360;2023-04-02T08:10:51;8.85;;;3.53;;
70796;SDS011;63842;52.144;5.360;2023-04-02T08:13:20;8.23;;;3.35;;
70796;SDS011;63842;52.144;5.360;2023-04-02T08:15:48;9.50;;;3.90;;
70796;SDS011;63842;52.144;5.360;2023-04-02T08:18:15;7.68;;;3.60;;
70796;SDS011;63842;52.144;5.360;2023-04-02T08:20:42;8.82;;;3.63;;
70796;SDS011;63842;52.144;5.360;2023-04-02T08:23:13;8.15;;;3.40;;
70796;SDS011;63842;52.144;5.360;2023-04-02T08:25:43;9.30;;;3.90;;
70796;SDS011;63842;52.144;5.360;2023-04-02T08:28:10;10.13;;;4.03;;
70796;SDS011;63842;52.144;5.360;2023-04-02T08:30:37;9.30;;;4.35;;
70796;SDS011;63842;52.144;5.360;2023-04-02T08:33:05;8.80;;;4.13;;
70796;SDS011;63842;52.144;5.360;2023-04-02T08:35:32;9.02;;;4.53;;
70796;SDS011;63842;52.144;5.360;2023-04-02T08:38:00;9.65;;;4.53;;
70796;SDS011;63842;52.144;5.360;2023-04-02T08:45:46;9.85;;;4.80;;
70796;SDS011;63842;52.144;5.360;2023-04-02T08:48:16;9.75;;;4.53;;
70796;SDS011;63842;52.144;5.360;2023-04-02T08:50:44;11.40;;;4.90;;
70796;SDS011;63842;52.144;5.360;2023-04-02T08:53:16;10.43;;;4.82;;
70796;SDS011;63842;52.144;5.360;2023-04-02T08:55:47;9.55;;;5.03;;
70796;SDS011;63842;52.144;5.360;2023-04-02T09:01:01;11.57;;;5.60;;
70796;SDS011;63842;52.144;5.360;2023-04-02T09:03:30;12.02;;;5.65;;
70796;SDS011;63842;52.144;5.360;2023-04-02T09:06:01;10.40;;;5.70;;
70796;SDS011;63842;52.144;5.360;2023-04-02T09:08:29;10.98;;;5.55;;
70796;SDS011;63842;52.144;5.360;2023-04-02T09:11:04;11.00;;;6.03;;
70796;SDS011;63842;52.144;5.360;2023-04-02T09:13:33;11.07;;;5.45;;
70796;SDS011;63842;52.144;5.360;2023-04-02T09:16:05;10.70;;;5.35;;
70796;SDS011;63842;52.144;5.360;2023-04-02T09:18:34;10.50;;;5.50;;
70796;SDS011;63842;52.144;5.360;2023-04-02T09:23:48;11.77;;;5.43;;
70796;SDS011;63842;52.144;5.360;2023-04-02T09:26:20;8.63;;;4.25;;
70796;SDS011;63842;52.144;5.360;2023-04-02T09:28:52;9.52;;;4.05;;
70796;SDS011;63842;52.144;5.360;2023-04-02T09:31:33;8.93;;;3.55;;
70796;SDS011;63842;52.144;5.360;2023-04-02T09:34:01;7.70;;;3.10;;
70796;SDS011;63842;52.144;5.360;2023-04-02T09:36:49;5.85;;;2.75;;
70796;SDS011;63842;52.144;5.360;2023-04-02T09:39:17;9.00;;;2.70;;
70796;SDS011;63842;52.144;5.360;2023-04-02T09:41:46;6.78;;;2.75;;
70796;SDS011;63842;52.144;5.360;2023-04-02T09:44:30;9.55;;;2.83;;
70796;SDS011;63842;52.144;5.360;2023-04-02T09:46:59;6.45;;;2.40;;
70796;SDS011;63842;52.144;5.360;2023-04-02T09:49:30;7.32;;;2.42;;
70796;SDS011;63842;52.144;5.360;2023-04-02T09:54:37;5.93;;;2.40;;
70796;SDS011;63842;52.144;5.360;2023-04-02T09:59:34;8.48;;;2.60;;
70796;SDS011;63842;52.144;5.360;2023-04-02T10:02:01;4.78;;;2.22;;
70796;SDS011;63842;52.144;5.360;2023-04-02T10:04:43;5.80;;;2.30;;
70796;SDS011;63842;52.144;5.360;2023-04-02T10:07:30;5.95;;;2.08;;
70796;SDS011;63842;52.144;5.360;2023-04-02T10:10:00;7.32;;;2.10;;
70796;SDS011;63842;52.144;5.360;2023-04-02T10:12:29;8.02;;;2.60;;
70796;SDS011;63842;52.144;5.360;2023-04-02T10:15:00;8.38;;;2.40;;
70796;SDS011;63842;52.144;5.360;2023-04-02T10:17:32;5.20;;;2.10;;
70796;SDS011;63842;52.144;5.360;2023-04-02T10:20:07;8.23;;;2.35;;
70796;SDS011;63842;52.144;5.360;2023-04-02T10:22:37;6.15;;;2.10;;
70796;SDS011;63842;52.144;5.360;2023-04-02T10:25:16;5.80;;;2.38;;
70796;SDS011;63842;52.144;5.360;2023-04-02T10:27:49;4.63;;;1.98;;
70796;SDS011;63842;52.144;5.360;2023-04-02T10:30:28;5.88;;;2.35;;
70796;SDS011;63842;52.144;5.360;2023-04-02T10:33:02;5.40;;;2.17;;
70796;SDS011;63842;52.144;5.360;2023-04-02T10:40:35;7.15;;;2.70;;
70796;SDS011;63842;52.144;5.360;2023-04-02T10:43:20;6.05;;;2.40;;
70796;SDS011;63842;52.144;5.360;2023-04-02T10:51:21;6.72;;;2.67;;
70796;SDS011;63842;52.144;5.360;2023-04-02T10:53:54;9.77;;;2.95;;
70796;SDS011;63842;52.144;5.360;2023-04-02T10:56:23;7.15;;;2.60;;
70796;SDS011;63842;52.144;5.360;2023-04-02T10:58:54;6.20;;;2.80;;
70796;SDS011;63842;52.144;5.360;2023-04-02T11:01:24;7.55;;;3.08;;
70796;SDS011;63842;52.144;5.360;2023-04-02T11:03:58;9.05;;;3.03;;
70796;SDS011;63842;52.144;5.360;2023-04-02T11:06:30;10.90;;;3.70;;
70796;SDS011;63842;52.144;5.360;2023-04-02T11:09:02;9.77;;;3.50;;
70796;SDS011;63842;52.144;5.360;2023-04-02T11:11:33;10.35;;;3.00;;
70796;SDS011;63842;52.144;5.360;2023-04-02T11:14:03;9.68;;;3.08;;
70796;SDS011;63842;52.144;5.360;2023-04-02T11:16:30;11.73;;;3.38;;
70796;SDS011;63842;52.144;5.360;2023-04-02T11:24:41;8.25;;;2.67;;
70796;SDS011;63842;52.144;5.360;2023-04-02T11:27:17;7.38;;;3.03;;
70796;SDS011;63842;52.144;5.360;2023-04-02T11:29:51;8.80;;;3.47;;
70796;SDS011;63842;52.144;5.360;2023-04-02T11:37:41;6.60;;;2.70;;
70796;SDS011;63842;52.144;5.360;2023-04-02T11:42:38;8.63;;;2.92;;
70796;SDS011;63842;52.144;5.360;2023-04-02T11:50:35;6.78;;;2.70;;
70796;SDS011;63842;52.144;5.360;2023-04-02T11:55:43;7.53;;;2.90;;
70796;SDS011;63842;52.144;5.360;2023-04-02T12:01:10;8.23;;;3.30;;
70796;SDS011;63842;52.144;5.360;2023-04-02T12:09:07;7.75;;;2.80;;
70796;SDS011;63842;52.144;5.360;2023-04-02T12:11:36;8.15;;;3.17;;
70796;SDS011;63842;52.144;5.360;2023-04-02T12:16:50;7.45;;;3.00;;
70796;SDS011;63842;52.144;5.360;2023-04-02T12:19:18;6.38;;;3.00;;
70796;SDS011;63842;52.144;5.360;2023-04-02T12:21:46;7.40;;;3.10;;
70796;SDS011;63842;52.144;5.360;2023-04-02T12:24:18;8.60;;;3.00;;
70796;SDS011;63842;52.144;5.360;2023-04-02T12:26:46;9.35;;;3.15;;
70796;SDS011;63842;52.144;5.360;2023-04-02T12:29:14;8.30;;;2.90;;
70796;SDS011;63842;52.144;5.360;2023-04-02T12:31:45;6.32;;;2.80;;
70796;SDS011;63842;52.144;5.360;2023-04-02T12:34:13;6.65;;;2.70;;
70796;SDS011;63842;52.144;5.360;2023-04-02T12:36:55;7.78;;;3.25;;
70796;SDS011;63842;52.144;5.360;2023-04-02T12:39:25;7.07;;;2.60;;
70796;SDS011;63842;52.144;5.360;2023-04-02T12:41:54;7.47;;;2.83;;
70796;SDS011;63842;52.144;5.360;2023-04-02T12:44:23;7.95;;;2.95;;
70796;SDS011;63842;52.144;5.360;2023-04-02T12:46:50;6.15;;;2.47;;
70796;SDS011;63842;52.144;5.360;2023-04-02T12:51:46;7.13;;;3.17;;
70796;SDS011;63842;52.144;5.360;2023-04-02T12:54:14;6.32;;;2.70;;
70796;SDS011;63842;52.144;5.360;2023-04-02T12:56:43;6.25;;;2.50;;
70796;SDS011;63842;52.144;5.360;2023-04-02T12:59:25;7.35;;;2.83;;
70796;SDS011;63842;52.144;5.360;2023-04-02T13:01:54;7.05;;;3.15;;
70796;SDS011;63842;52.144;5.360;2023-04-02T13:04:22;8.20;;;2.88;;
70796;SDS011;63842;52.144;5.360;2023-04-02T13:06:50;5.55;;;2.25;;
70796;SDS011;63842;52.144;5.360;2023-04-02T13:11:56;7.65;;;2.88;;
70796;SDS011;63842;52.144;5.360;2023-04-02T13:14:24;6.60;;;2.58;;
70796;SDS011;63842;52.144;5.360;2023-04-02T13:16:52;6.97;;;3.10;;
70796;SDS011;63842;52.144;5.360;2023-04-02T13:19:20;6.68;;;2.80;;
70796;SDS011;63842;52.144;5.360;2023-04-02T13:21:48;7.88;;;3.00;;
70796;SDS011;63842;52.144;5.360;2023-04-02T13:24:24;7.25;;;2.65;;
70796;SDS011;63842;52.144;5.360;2023-04-02T13:26:53;5.95;;;2.35;;
70796;SDS011;63842;52.144;5.360;2023-04-02T13:31:55;6.53;;;2.67;;
70796;SDS011;63842;52.144;5.360;2023-04-02T13:34:24;5.97;;;2.38;;
70796;SDS011;63842;52.144;5.360;2023-04-02T13:36:51;5.60;;;2.42;;
70796;SDS011;63842;52.144;5.360;2023-04-02T13:39:19;4.93;;;2.40;;
70796;SDS011;63842;52.144;5.360;2023-04-02T13:41:47;5.97;;;2.20;;
70796;SDS011;63842;52.144;5.360;2023-04-02T13:44:31;7.32;;;2.28;;
70796;SDS011;63842;52.144;5.360;2023-04-02T13:46:59;5.32;;;2.05;;
70796;SDS011;63842;52.144;5.360;2023-04-02T13:49:27;10.05;;;2.60;;
70796;SDS011;63842;52.144;5.360;2023-04-02T13:51:55;4.68;;;2.25;;
70796;SDS011;63842;52.144;5.360;2023-04-02T13:56:51;7.65;;;2.30;;
70796;SDS011;63842;52.144;5.360;2023-04-02T13:59:18;6.47;;;2.10;;
70796;SDS011;63842;52.144;5.360;2023-04-02T14:01:46;5.18;;;1.98;;
70796;SDS011;63842;52.144;5.360;2023-04-02T14:04:21;5.30;;;2.00;;
70796;SDS011;63842;52.144;5.360;2023-04-02T14:06:55;5.00;;;2.00;;
70796;SDS011;63842;52.144;5.360;2023-04-02T14:17:10;7.03;;;2.20;;
70796;SDS011;63842;52.144;5.360;2023-04-02T14:25:15;6.25;;;2.10;;
70796;SDS011;63842;52.144;5.360;2023-04-02T14:30:20;3.92;;;1.73;;
70796;SDS011;63842;52.144;5.360;2023-04-02T14:32:55;8.00;;;3.42;;
70796;SDS011;63842;52.144;5.360;2023-04-02T14:35:32;8.23;;;2.67;;
70796;SDS011;63842;52.144;5.360;2023-04-02T14:40:30;6.53;;;2.10;;
70796;SDS011;63842;52.144;5.360;2023-04-02T14:43:11;6.32;;;2.20;;
70796;SDS011;63842;52.144;5.360;2023-04-02T14:51:12;6.65;;;2.40;;
70796;SDS011;63842;52.144;5.360;2023-04-02T14:56:08;6.20;;;2.10;;
70796;SDS011;63842;52.144;5.360;2023-04-02T14:58:39;5.00;;;1.90;;
70796;SDS011;63842;52.144;5.360;2023-04-02T15:01:16;4.97;;;1.90;;
70796;SDS011;63842;52.144;5.360;2023-04-02T15:03:47;5.25;;;2.10;;
70796;SDS011;63842;52.144;5.360;2023-04-02T15:06:17;8.35;;;2.67;;
70796;SDS011;63842;52.144;5.360;2023-04-02T15:08:50;5.85;;;1.90;;
70796;SDS011;63842;52.144;5.360;2023-04-02T15:11:35;5.35;;;1.85;;
70796;SDS011;63842;52.144;5.360;2023-04-02T15:16:33;7.15;;;2.10;;
70796;SDS011;63842;52.144;5.360;2023-04-02T15:19:02;8.10;;;2.42;;
70796;SDS011;63842;52.144;5.360;2023-04-02T15:21:36;4.55;;;1.83;;
70796;SDS011;63842;52.144;5.360;2023-04-02T15:29:52;6.50;;;1.95;;
70796;SDS011;63842;52.144;5.360;2023-04-02T15:32:23;6.72;;;2.03;;
70796;SDS011;63842;52.144;5.360;2023-04-02T15:34:57;6.38;;;1.98;;
70796;SDS011;63842;52.144;5.360;2023-04-02T15:42:43;5.88;;;1.90;;
70796;SDS011;63842;52.144;5.360;2023-04-02T15:45:21;8.23;;;2.00;;
70796;SDS011;63842;52.144;5.360;2023-04-02T15:53:05;5.78;;;2.08;;
70796;SDS011;63842;52.144;5.360;2023-04-02T15:55:40;5.53;;;2.10;;
70796;SDS011;63842;52.144;5.360;2023-04-02T15:59:01;5.88;;;2.22;;
70796;SDS011;63842;52.144;5.360;2023-04-02T16:03:32;7.07;;;2.20;;
70796;SDS011;63842;52.144;5.360;2023-04-02T16:08:46;6.32;;;1.95;;
70796;SDS011;63842;52.144;5.360;2023-04-02T16:11:22;6.53;;;2.25;;
70796;SDS011;63842;52.144;5.360;2023-04-02T16:13:50;7.40;;;2.92;;
70796;SDS011;63842;52.144;5.360;2023-04-02T16:16:23;6.50;;;2.50;;
70796;SDS011;63842;52.144;5.360;2023-04-02T16:21:19;6.82;;;2.50;;
70796;SDS011;63842;52.144;5.360;2023-04-02T16:23:47;5.70;;;2.47;;
70796;SDS011;63842;52.144;5.360;2023-04-02T16:26:32;6.80;;;2.25;;
70796;SDS011;63842;52.144;5.360;2023-04-02T16:34:54;7.00;;;2.17;;
70796;SDS011;63842;52.144;5.360;2023-04-02T16:37:48;5.32;;;2.10;;
70796;SDS011;63842;52.144;5.360;2023-04-02T16:58:40;7.60;;;2.70;;
70796;SDS011;63842;52.144;5.360;2023-04-02T17:03:54;4.90;;;1.52;;
70796;SDS011;63842;52.144;5.360;2023-04-02T17:06:40;4.47;;;1.95;;
70796;SDS011;63842;52.144;5.360;2023-04-02T17:09:30;8.13;;;2.42;;
70796;SDS011;63842;52.144;5.360;2023-04-02T17:12:00;6.40;;;2.30;;
70796;SDS011;63842;52.144;5.360;2023-04-02T17:14:30;5.45;;;2.08;;
70796;SDS011;63842;52.144;5.360;2023-04-02T17:17:01;6.97;;;2.20;;
70796;SDS011;63842;52.144;5.360;2023-04-02T17:19:29;6.05;;;2.10;;
70796;SDS011;63842;52.144;5.360;2023-04-02T17:21:58;5.75;;;2.28;;
70796;SDS011;63842;52.144;5.360;2023-04-02T17:24:28;4.60;;;1.75;;
70796;SDS011;63842;52.144;5.360;2023-04-02T17:27:02;4.95;;;1.90;;
70796;SDS011;63842;52.144;5.360;2023-04-02T17:29:33;5.45;;;1.90;;
70796;SDS011;63842;52.144;5.360;2023-04-02T17:32:01;6.60;;;2.05;;
70796;SDS011;63842;52.144;5.360;2023-04-02T17:34:29;5.82;;;1.90;;
70796;SDS011;63842;52.144;5.360;2023-04-02T17:39:42;7.53;;;1.77;;
70796;SDS011;63842;52.144;5.360;2023-04-02T17:50:19;5.75;;;1.90;;
70796;SDS011;63842;52.144;5.360;2023-04-02T18:03:25;8.18;;;2.28;;
70796;SDS011;63842;52.144;5.360;2023-04-02T18:09:15;5.38;;;1.73;;
70796;SDS011;63842;52.144;5.360;2023-04-02T18:19:53;5.60;;;2.00;;
70796;SDS011;63842;52.144;5.360;2023-04-02T18:22:25;4.95;;;1.90;;
70796;SDS011;63842;52.144;5.360;2023-04-02T18:27:55;6.15;;;2.30;;
70796;SDS011;63842;52.144;5.360;2023-04-02T18:30:26;5.38;;;1.95;;
70796;SDS011;63842;52.144;5.360;2023-04-02T18:32:59;5.68;;;1.83;;
70796;SDS011;63842;52.144;5.360;2023-04-02T18:35:30;5.28;;;1.85;;
70796;SDS011;63842;52.144;5.360;2023-04-02T18:50:54;5.93;;;2.10;;
70796;SDS011;63842;52.144;5.360;2023-04-02T18:53:22;5.90;;;1.65;;
70796;SDS011;63842;52.144;5.360;2023-04-02T18:58:34;6.43;;;2.05;;
70796;SDS011;63842;52.144;5.360;2023-04-02T19:03:40;5.82;;;1.83;;
70796;SDS011;63842;52.144;5.360;2023-04-02T19:11:33;6.68;;;1.92;;
70796;SDS011;63842;52.144;5.360;2023-04-02T19:14:03;6.32;;;1.70;;
70796;SDS011;63842;52.144;5.360;2023-04-02T19:19:26;7.63;;;1.65;;
70796;SDS011;63842;52.144;5.360;2023-04-02T19:22:13;4.75;;;1.60;;
70796;SDS011;63842;52.144;5.360;2023-04-02T19:25:00;5.80;;;1.55;;
70796;SDS011;63842;52.144;5.360;2023-04-02T19:32:46;6.13;;;1.90;;
70796;SDS011;63842;52.144;5.360;2023-04-02T19:35:21;7.00;;;1.83;;
70796;SDS011;63842;52.144;5.360;2023-04-02T19:43:02;6.20;;;1.90;;
70796;SDS011;63842;52.144;5.360;2023-04-02T19:45:31;6.10;;;1.90;;
70796;SDS011;63842;52.144;5.360;2023-04-02T19:48:10;8.30;;;3.10;;
70796;SDS011;63842;52.144;5.360;2023-04-02T19:50:38;7.00;;;2.78;;
70796;SDS011;63842;52.144;5.360;2023-04-02T19:53:06;12.43;;;2.40;;
70796;SDS011;63842;52.144;5.360;2023-04-02T19:55:33;8.05;;;2.55;;
70796;SDS011;63842;52.144;5.360;2023-04-02T19:58:01;6.95;;;2.67;;
70796;SDS011;63842;52.144;5.360;2023-04-02T20:00:42;7.20;;;2.50;;
70796;SDS011;63842;52.144;5.360;2023-04-02T20:03:10;6.15;;;2.25;;
70796;SDS011;63842;52.144;5.360;2023-04-02T20:05:37;6.60;;;2.13;;
70796;SDS011;63842;52.144;5.360;2023-04-02T20:08:04;7.40;;;1.85;;
70796;SDS011;63842;52.144;5.360;2023-04-02T20:10:31;6.03;;;2.10;;
70796;SDS011;63842;52.144;5.360;2023-04-02T20:13:00;8.52;;;2.03;;
70796;SDS011;63842;52.144;5.360;2023-04-02T20:15:27;6.03;;;1.70;;
70796;SDS011;63842;52.144;5.360;2023-04-02T20:17:54;6.00;;;1.80;;
70796;SDS011;63842;52.144;5.360;2023-04-02T20:20:22;5.90;;;1.67;;
70796;SDS011;63842;52.144;5.360;2023-04-02T20:22:49;4.82;;;1.80;;